sensor_id;sensor_type;location;lat;lon;timestamp;P1;durP1;ratioP1;P2;durP2;ratioP2
74483;SDS011;62942;52.462;10.846;2023-10-08T00:00:53;0.5;;;0.5;;
74483;SDS011;62942;52.462;10.846;2023-10-08T00:02:04;0.6;;;0.7;;
74483;SDS011;62942;52.462;10.846;2023-10-08T00:03:13;0.6;;;0.8;;
74483;SDS011;62942;52.462;10.846;2023-10-08T00:04:23;0.6;;;0.7;;
74483;SDS011;62942;52.462;10.846;2023-10-08T00:05:23;0.5;;;1.2;;
74483;SDS011;62942;52.462;10.846;2023-10-08T00:06:33;0.5;;;0.5;;
74483;SDS011;62942;52.462;10.846;2023-10-08T00:07:33;0.4;;;0.5;;
74483;SDS011;62942;52.462;10.846;2023-10-08T00:08:33;0.5;;;0.6;;
74483;SDS011;62942;52.462;10.846;2023-10-08T00:09:43;0.5;;;0.7;;
74483;SDS011;62942;52.462;10.846;2023-10-08T00:10:54;0.4;;;1.6;;
74483;SDS011;62942;52.462;10.846;2023-10-08T00:12:04;0.4;;;0.5;;
74483;SDS011;62942;52.462;10.846;2023-10-08T00:13:14;0.5;;;1.2;;
74483;SDS011;62942;52.462;10.846;2023-10-08T00:14:23;0.5;;;0.8;;
74483;SDS011;62942;52.462;10.846;2023-10-08T00:15:23;0.5;;;1;;
74483;SDS011;62942;52.462;10.846;2023-10-08T00:16:34;0.5;;;0.7;;
74483;SDS011;62942;52.462;10.846;2023-10-08T00:17:33;0.5;;;0.9;;
74483;SDS011;62942;52.462;10.846;2023-10-08T00:18:44;0.5;;;1;;
74483;SDS011;62942;52.462;10.846;2023-10-08T00:19:43;0.5;;;0.8;;
74483;SDS011;62942;52.462;10.846;2023-10-08T00:20:53;0.6;;;1.3;;
74483;SDS011;62942;52.462;10.846;2023-10-08T00:21:53;0.6;;;1.1;;
74483;SDS011;62942;52.462;10.846;2023-10-08T00:23:03;0.7;;;1.5;;
74483;SDS011;62942;52.462;10.846;2023-10-08T00:24:13;0.7;;;1.2;;
74483;SDS011;62942;52.462;10.846;2023-10-08T00:25:23;0.9;;;1.4;;
74483;SDS011;62942;52.462;10.846;2023-10-08T00:26:34;0.8;;;2.1;;
74483;SDS011;62942;52.462;10.846;2023-10-08T00:27:43;1;;;2.1;;
74483;SDS011;62942;52.462;10.846;2023-10-08T00:28:54;0.9;;;2;;
74483;SDS011;62942;52.462;10.846;2023-10-08T00:30:04;0.9;;;1.7;;
74483;SDS011;62942;52.462;10.846;2023-10-08T00:31:14;1.1;;;2.1;;
74483;SDS011;62942;52.462;10.846;2023-10-08T00:32:23;1;;;1.9;;
74483;SDS011;62942;52.462;10.846;2023-10-08T00:33:33;1.2;;;2.3;;
74483;SDS011;62942;52.462;10.846;2023-10-08T00:34:44;1;;;2;;
74483;SDS011;62942;52.462;10.846;2023-10-08T00:35:53;1.2;;;2.2;;
74483;SDS011;62942;52.462;10.846;2023-10-08T00:37:03;1.2;;;3;;
74483;SDS011;62942;52.462;10.846;2023-10-08T00:38:13;1.3;;;2.7;;
74483;SDS011;62942;52.462;10.846;2023-10-08T00:39:23;1.2;;;2.4;;
74483;SDS011;62942;52.462;10.846;2023-10-08T00:40:37;1.4;;;2.9;;
74483;SDS011;62942;52.462;10.846;2023-10-08T00:41:33;1.2;;;2.4;;
74483;SDS011;62942;52.462;10.846;2023-10-08T00:42:43;1.5;;;2.8;;
74483;SDS011;62942;52.462;10.846;2023-10-08T00:43:54;1.5;;;3.2;;
74483;SDS011;62942;52.462;10.846;2023-10-08T00:45:04;1.9;;;3.3;;
74483;SDS011;62942;52.462;10.846;2023-10-08T00:46:03;1.9;;;3.2;;
74483;SDS011;62942;52.462;10.846;2023-10-08T00:47:15;1.8;;;3.2;;
74483;SDS011;62942;52.462;10.846;2023-10-08T00:48:13;2;;;3.6;;
74483;SDS011;62942;52.462;10.846;2023-10-08T00:49:36;2;;;3.2;;
74483;SDS011;62942;52.462;10.846;2023-10-08T00:50:46;2.1;;;3.5;;
74483;SDS011;62942;52.462;10.846;2023-10-08T00:51:57;2.1;;;4.3;;
74483;SDS011;62942;52.462;10.846;2023-10-08T00:52:55;1.9;;;3.6;;
74483;SDS011;62942;52.462;10.846;2023-10-08T00:53:56;1.7;;;3;;
74483;SDS011;62942;52.462;10.846;2023-10-08T00:54:56;1.8;;;3.9;;
74483;SDS011;62942;52.462;10.846;2023-10-08T00:56:06;2;;;4.8;;
74483;SDS011;62942;52.462;10.846;2023-10-08T00:57:16;1.9;;;4.8;;
74483;SDS011;62942;52.462;10.846;2023-10-08T00:58:26;1.8;;;4.6;;
74483;SDS011;62942;52.462;10.846;2023-10-08T00:59:36;1.7;;;3.8;;
74483;SDS011;62942;52.462;10.846;2023-10-08T01:00:36;1.8;;;4.9;;
74483;SDS011;62942;52.462;10.846;2023-10-08T01:01:36;1.6;;;5.6;;
74483;SDS011;62942;52.462;10.846;2023-10-08T01:02:46;1.6;;;4.1;;
74483;SDS011;62942;52.462;10.846;2023-10-08T01:03:55;1.7;;;4.8;;
74483;SDS011;62942;52.462;10.846;2023-10-08T01:04:55;1.4;;;3.6;;
74483;SDS011;62942;52.462;10.846;2023-10-08T01:06:06;1.6;;;3.7;;
74483;SDS011;62942;52.462;10.846;2023-10-08T01:07:15;1.6;;;4.8;;
74483;SDS011;62942;52.462;10.846;2023-10-08T01:08:25;1.5;;;5.5;;
74483;SDS011;62942;52.462;10.846;2023-10-08T01:09:26;1.4;;;4.2;;
74483;SDS011;62942;52.462;10.846;2023-10-08T01:10:35;1.5;;;4.2;;
74483;SDS011;62942;52.462;10.846;2023-10-08T01:11:35;1.5;;;5.9;;
74483;SDS011;62942;52.462;10.846;2023-10-08T01:12:46;1.5;;;4.9;;
74483;SDS011;62942;52.462;10.846;2023-10-08T01:13:55;1.8;;;6.2;;
74483;SDS011;62942;52.462;10.846;2023-10-08T01:14:55;1.7;;;7;;
74483;SDS011;62942;52.462;10.846;2023-10-08T01:16:05;1.5;;;4.4;;
74483;SDS011;62942;52.462;10.846;2023-10-08T01:17:05;1.4;;;4.9;;
74483;SDS011;62942;52.462;10.846;2023-10-08T01:18:05;1.5;;;5.3;;
74483;SDS011;62942;52.462;10.846;2023-10-08T01:19:17;1.6;;;5;;
74483;SDS011;62942;52.462;10.846;2023-10-08T01:20:15;1.4;;;4.3;;
74483;SDS011;62942;52.462;10.846;2023-10-08T01:21:28;1.5;;;5.9;;
74483;SDS011;62942;52.462;10.846;2023-10-08T01:22:36;1.6;;;7.1;;
74483;SDS011;62942;52.462;10.846;2023-10-08T01:23:35;1.5;;;5.3;;
74483;SDS011;62942;52.462;10.846;2023-10-08T01:24:45;1.5;;;4.6;;
74483;SDS011;62942;52.462;10.846;2023-10-08T01:25:46;1.4;;;5.4;;
74483;SDS011;62942;52.462;10.846;2023-10-08T01:26:55;1.5;;;6.5;;
74483;SDS011;62942;52.462;10.846;2023-10-08T01:28:06;1.6;;;4.6;;
74483;SDS011;62942;52.462;10.846;2023-10-08T01:29:15;1.5;;;5.7;;
74483;SDS011;62942;52.462;10.846;2023-10-08T01:30:25;1.6;;;5.5;;
74483;SDS011;62942;52.462;10.846;2023-10-08T01:31:25;1.5;;;5.1;;
74483;SDS011;62942;52.462;10.846;2023-10-08T01:32:25;1.5;;;4.6;;
74483;SDS011;62942;52.462;10.846;2023-10-08T01:33:35;1.8;;;7.2;;
74483;SDS011;62942;52.462;10.846;2023-10-08T01:34:36;1.7;;;5.8;;
74483;SDS011;62942;52.462;10.846;2023-10-08T01:35:45;1.6;;;5.5;;
74483;SDS011;62942;52.462;10.846;2023-10-08T01:36:45;1.4;;;5.1;;
74483;SDS011;62942;52.462;10.846;2023-10-08T01:37:56;1.5;;;6.3;;
74483;SDS011;62942;52.462;10.846;2023-10-08T01:38:55;1.7;;;5.3;;
74483;SDS011;62942;52.462;10.846;2023-10-08T01:40:06;1.6;;;5;;
74483;SDS011;62942;52.462;10.846;2023-10-08T01:41:06;1.6;;;5.6;;
74483;SDS011;62942;52.462;10.846;2023-10-08T01:42:15;1.5;;;5.2;;
74483;SDS011;62942;52.462;10.846;2023-10-08T01:43:16;1.8;;;5.5;;
74483;SDS011;62942;52.462;10.846;2023-10-08T01:44:26;1.5;;;5.7;;
74483;SDS011;62942;52.462;10.846;2023-10-08T01:45:36;1.7;;;6.3;;
74483;SDS011;62942;52.462;10.846;2023-10-08T01:46:35;1.7;;;6.9;;
74483;SDS011;62942;52.462;10.846;2023-10-08T01:47:45;1.7;;;6.4;;
74483;SDS011;62942;52.462;10.846;2023-10-08T01:48:45;1.5;;;5.6;;
74483;SDS011;62942;52.462;10.846;2023-10-08T01:49:55;2;;;8.2;;
74483;SDS011;62942;52.462;10.846;2023-10-08T01:50:55;1.7;;;7.3;;
74483;SDS011;62942;52.462;10.846;2023-10-08T01:51:55;1.9;;;7.5;;
74483;SDS011;62942;52.462;10.846;2023-10-08T01:53:06;1.7;;;6;;
74483;SDS011;62942;52.462;10.846;2023-10-08T01:54:15;1.5;;;6;;
74483;SDS011;62942;52.462;10.846;2023-10-08T01:55:15;1.9;;;6.8;;
74483;SDS011;62942;52.462;10.846;2023-10-08T01:56:15;1.7;;;7.8;;
74483;SDS011;62942;52.462;10.846;2023-10-08T01:57:25;1.7;;;5.7;;
74483;SDS011;62942;52.462;10.846;2023-10-08T01:58:25;1.5;;;4.3;;
74483;SDS011;62942;52.462;10.846;2023-10-08T01:59:25;1.6;;;5.9;;
74483;SDS011;62942;52.462;10.846;2023-10-08T02:00:35;1.6;;;6.7;;
74483;SDS011;62942;52.462;10.846;2023-10-08T02:01:35;1.6;;;7;;
74483;SDS011;62942;52.462;10.846;2023-10-08T02:02:35;1.7;;;6.3;;
74483;SDS011;62942;52.462;10.846;2023-10-08T02:03:45;1.5;;;6.8;;
74483;SDS011;62942;52.462;10.846;2023-10-08T02:04:55;1.5;;;5.4;;
74483;SDS011;62942;52.462;10.846;2023-10-08T02:05:55;1.5;;;6.7;;
74483;SDS011;62942;52.462;10.846;2023-10-08T02:06:55;1.6;;;6.3;;
74483;SDS011;62942;52.462;10.846;2023-10-08T02:08:05;1.7;;;7.6;;
74483;SDS011;62942;52.462;10.846;2023-10-08T02:09:15;1.6;;;6;;
74483;SDS011;62942;52.462;10.846;2023-10-08T02:10:15;1.3;;;6.5;;
74483;SDS011;62942;52.462;10.846;2023-10-08T02:11:15;1.4;;;5.7;;
74483;SDS011;62942;52.462;10.846;2023-10-08T02:12:25;1.5;;;7.2;;
74483;SDS011;62942;52.462;10.846;2023-10-08T02:13:25;1.6;;;7.7;;
74483;SDS011;62942;52.462;10.846;2023-10-08T02:14:35;1.6;;;6.5;;
74483;SDS011;62942;52.462;10.846;2023-10-08T02:15:49;1.6;;;6.9;;
74483;SDS011;62942;52.462;10.846;2023-10-08T02:16:55;1.6;;;5.7;;
74483;SDS011;62942;52.462;10.846;2023-10-08T02:18:05;1.3;;;5.9;;
74483;SDS011;62942;52.462;10.846;2023-10-08T02:19:15;1.6;;;5.6;;
74483;SDS011;62942;52.462;10.846;2023-10-08T02:20:15;1.6;;;8;;
74483;SDS011;62942;52.462;10.846;2023-10-08T02:21:25;1.5;;;7.6;;
74483;SDS011;62942;52.462;10.846;2023-10-08T02:22:25;1.4;;;5.5;;
74483;SDS011;62942;52.462;10.846;2023-10-08T02:23:35;1.5;;;6.8;;
74483;SDS011;62942;52.462;10.846;2023-10-08T02:24:35;1.5;;;6.6;;
74483;SDS011;62942;52.462;10.846;2023-10-08T02:25:45;1.4;;;6.2;;
74483;SDS011;62942;52.462;10.846;2023-10-08T02:26:45;1.4;;;5.7;;
74483;SDS011;62942;52.462;10.846;2023-10-08T02:27:55;1.6;;;6.6;;
74483;SDS011;62942;52.462;10.846;2023-10-08T02:28:55;1.4;;;6.7;;
74483;SDS011;62942;52.462;10.846;2023-10-08T02:30:06;1.4;;;6.7;;
74483;SDS011;62942;52.462;10.846;2023-10-08T02:31:05;1.5;;;6.3;;
74483;SDS011;62942;52.462;10.846;2023-10-08T02:32:15;1.5;;;6.5;;
74483;SDS011;62942;52.462;10.846;2023-10-08T02:33:15;1.6;;;7.4;;
74483;SDS011;62942;52.462;10.846;2023-10-08T02:34:26;1.6;;;6.6;;
74483;SDS011;62942;52.462;10.846;2023-10-08T02:35:35;1.4;;;4.6;;
74483;SDS011;62942;52.462;10.846;2023-10-08T02:36:45;1.4;;;4.8;;
74483;SDS011;62942;52.462;10.846;2023-10-08T02:37:46;1.5;;;7.2;;
74483;SDS011;62942;52.462;10.846;2023-10-08T02:38:55;1.3;;;5.3;;
74483;SDS011;62942;52.462;10.846;2023-10-08T02:40:06;1.4;;;5.5;;
74483;SDS011;62942;52.462;10.846;2023-10-08T02:41:15;1.5;;;7.6;;
74483;SDS011;62942;52.462;10.846;2023-10-08T02:42:15;1.3;;;5.6;;
74483;SDS011;62942;52.462;10.846;2023-10-08T02:43:25;1.4;;;6.1;;
74483;SDS011;62942;52.462;10.846;2023-10-08T02:44:25;1.3;;;5.9;;
74483;SDS011;62942;52.462;10.846;2023-10-08T02:45:35;1.4;;;4.9;;
74483;SDS011;62942;52.462;10.846;2023-10-08T02:46:47;1.5;;;5.7;;
74483;SDS011;62942;52.462;10.846;2023-10-08T02:47:56;1.4;;;5.9;;
74483;SDS011;62942;52.462;10.846;2023-10-08T02:49:05;1.4;;;5.4;;
74483;SDS011;62942;52.462;10.846;2023-10-08T02:50:06;1.4;;;6;;
74483;SDS011;62942;52.462;10.846;2023-10-08T02:51:05;1.6;;;8.2;;
74483;SDS011;62942;52.462;10.846;2023-10-08T02:52:05;1.5;;;6.9;;
74483;SDS011;62942;52.462;10.846;2023-10-08T02:53:15;1.6;;;8.1;;
74483;SDS011;62942;52.462;10.846;2023-10-08T02:54:15;1.5;;;6.4;;
74483;SDS011;62942;52.462;10.846;2023-10-08T02:55:15;1.3;;;6.5;;
74483;SDS011;62942;52.462;10.846;2023-10-08T02:56:15;1.6;;;6.8;;
74483;SDS011;62942;52.462;10.846;2023-10-08T02:57:25;1.5;;;6.9;;
74483;SDS011;62942;52.462;10.846;2023-10-08T02:58:25;1.4;;;5.7;;
74483;SDS011;62942;52.462;10.846;2023-10-08T02:59:36;1.6;;;7.1;;
74483;SDS011;62942;52.462;10.846;2023-10-08T03:00:35;1.4;;;4.7;;
74483;SDS011;62942;52.462;10.846;2023-10-08T03:01:46;1.6;;;6.2;;
74483;SDS011;62942;52.462;10.846;2023-10-08T03:02:46;1.5;;;4.9;;
74483;SDS011;62942;52.462;10.846;2023-10-08T03:03:45;1.4;;;4.9;;
74483;SDS011;62942;52.462;10.846;2023-10-08T03:04:46;1.4;;;4.9;;
74483;SDS011;62942;52.462;10.846;2023-10-08T03:05:47;1.5;;;5.6;;
74483;SDS011;62942;52.462;10.846;2023-10-08T03:06:56;1.5;;;6.8;;
74483;SDS011;62942;52.462;10.846;2023-10-08T03:08:06;1.2;;;3.5;;
74483;SDS011;62942;52.462;10.846;2023-10-08T03:09:16;1.5;;;8.8;;
74483;SDS011;62942;52.462;10.846;2023-10-08T03:10:16;1.5;;;8.4;;
74483;SDS011;62942;52.462;10.846;2023-10-08T03:11:16;1.6;;;5.8;;
74483;SDS011;62942;52.462;10.846;2023-10-08T03:12:26;1.7;;;6.6;;
74483;SDS011;62942;52.462;10.846;2023-10-08T03:13:26;1.7;;;7.8;;
74483;SDS011;62942;52.462;10.846;2023-10-08T03:14:36;1.5;;;5.5;;
74483;SDS011;62942;52.462;10.846;2023-10-08T03:15:36;1.8;;;8.7;;
74483;SDS011;62942;52.462;10.846;2023-10-08T03:16:47;1.4;;;5.5;;
74483;SDS011;62942;52.462;10.846;2023-10-08T03:17:59;1.7;;;6.4;;
74483;SDS011;62942;52.462;10.846;2023-10-08T03:18:56;1.2;;;5.6;;
74483;SDS011;62942;52.462;10.846;2023-10-08T03:20:07;1.4;;;8.1;;
74483;SDS011;62942;52.462;10.846;2023-10-08T03:21:06;1.3;;;5;;
74483;SDS011;62942;52.462;10.846;2023-10-08T03:22:06;1.6;;;5.4;;
74483;SDS011;62942;52.462;10.846;2023-10-08T03:23:17;1.5;;;6.7;;
74483;SDS011;62942;52.462;10.846;2023-10-08T03:24:17;1.5;;;6.1;;
74483;SDS011;62942;52.462;10.846;2023-10-08T03:25:26;1.4;;;4.7;;
74483;SDS011;62942;52.462;10.846;2023-10-08T03:26:36;1.2;;;4.5;;
74483;SDS011;62942;52.462;10.846;2023-10-08T03:27:36;1.5;;;5.7;;
74483;SDS011;62942;52.462;10.846;2023-10-08T03:28:46;1.4;;;5.8;;
74483;SDS011;62942;52.462;10.846;2023-10-08T03:29:46;1.5;;;5.8;;
74483;SDS011;62942;52.462;10.846;2023-10-08T03:30:56;1.6;;;5.2;;
74483;SDS011;62942;52.462;10.846;2023-10-08T03:31:56;1.6;;;7.5;;
74483;SDS011;62942;52.462;10.846;2023-10-08T03:33:06;1.6;;;6;;
74483;SDS011;62942;52.462;10.846;2023-10-08T03:34:06;1.5;;;6;;
74483;SDS011;62942;52.462;10.846;2023-10-08T03:35:07;1.6;;;6.9;;
74483;SDS011;62942;52.462;10.846;2023-10-08T03:36:16;1.6;;;8;;
74483;SDS011;62942;52.462;10.846;2023-10-08T03:37:26;1.4;;;6;;
74483;SDS011;62942;52.462;10.846;2023-10-08T03:38:37;1.4;;;6.3;;
74483;SDS011;62942;52.462;10.846;2023-10-08T03:39:36;1.6;;;6.6;;
74483;SDS011;62942;52.462;10.846;2023-10-08T03:40:46;1.5;;;8.6;;
74483;SDS011;62942;52.462;10.846;2023-10-08T03:41:56;1.5;;;7;;
74483;SDS011;62942;52.462;10.846;2023-10-08T03:42:56;1.6;;;7.7;;
74483;SDS011;62942;52.462;10.846;2023-10-08T03:44:07;1.4;;;6.7;;
74483;SDS011;62942;52.462;10.846;2023-10-08T03:45:07;1.4;;;6.1;;
74483;SDS011;62942;52.462;10.846;2023-10-08T03:46:16;1.8;;;8;;
74483;SDS011;62942;52.462;10.846;2023-10-08T03:47:16;1.6;;;7.2;;
74483;SDS011;62942;52.462;10.846;2023-10-08T03:48:26;1.5;;;6.5;;
74483;SDS011;62942;52.462;10.846;2023-10-08T03:49:36;1.6;;;8.6;;
74483;SDS011;62942;52.462;10.846;2023-10-08T03:50:36;1.4;;;4.6;;
74483;SDS011;62942;52.462;10.846;2023-10-08T03:51:46;1.5;;;5.3;;
74483;SDS011;62942;52.462;10.846;2023-10-08T03:52:56;1.7;;;7.2;;
74483;SDS011;62942;52.462;10.846;2023-10-08T03:53:56;1.4;;;5.9;;
74483;SDS011;62942;52.462;10.846;2023-10-08T03:55:06;1.6;;;6;;
74483;SDS011;62942;52.462;10.846;2023-10-08T03:56:06;1.4;;;6.2;;
74483;SDS011;62942;52.462;10.846;2023-10-08T03:57:16;1.6;;;6.3;;
74483;SDS011;62942;52.462;10.846;2023-10-08T03:58:16;1.4;;;6.4;;
74483;SDS011;62942;52.462;10.846;2023-10-08T03:59:26;1.6;;;4.7;;
74483;SDS011;62942;52.462;10.846;2023-10-08T04:00:36;1.7;;;8.5;;
74483;SDS011;62942;52.462;10.846;2023-10-08T04:01:46;1.6;;;5.2;;
74483;SDS011;62942;52.462;10.846;2023-10-08T04:02:46;1.5;;;6.3;;
74483;SDS011;62942;52.462;10.846;2023-10-08T04:03:56;1.4;;;3.8;;
74483;SDS011;62942;52.462;10.846;2023-10-08T04:04:56;1.4;;;6.1;;
74483;SDS011;62942;52.462;10.846;2023-10-08T04:06:06;1.6;;;6.3;;
74483;SDS011;62942;52.462;10.846;2023-10-08T04:07:06;1.4;;;5;;
74483;SDS011;62942;52.462;10.846;2023-10-08T04:08:16;1.6;;;6.6;;
74483;SDS011;62942;52.462;10.846;2023-10-08T04:09:26;1.7;;;6.5;;
74483;SDS011;62942;52.462;10.846;2023-10-08T04:10:27;1.6;;;5.6;;
74483;SDS011;62942;52.462;10.846;2023-10-08T04:11:36;1.5;;;7.4;;
74483;SDS011;62942;52.462;10.846;2023-10-08T04:12:36;1.7;;;5.5;;
74483;SDS011;62942;52.462;10.846;2023-10-08T04:13:36;1.4;;;6.7;;
74483;SDS011;62942;52.462;10.846;2023-10-08T04:14:46;1.5;;;5.8;;
74483;SDS011;62942;52.462;10.846;2023-10-08T04:15:46;1.6;;;7.2;;
74483;SDS011;62942;52.462;10.846;2023-10-08T04:16:56;1.4;;;5.8;;
74483;SDS011;62942;52.462;10.846;2023-10-08T04:17:56;1.3;;;4.6;;
74483;SDS011;62942;52.462;10.846;2023-10-08T04:19:06;1.6;;;6.6;;
74483;SDS011;62942;52.462;10.846;2023-10-08T04:20:16;1.5;;;6.3;;
74483;SDS011;62942;52.462;10.846;2023-10-08T04:21:17;1.7;;;7;;
74483;SDS011;62942;52.462;10.846;2023-10-08T04:22:16;1.3;;;6.4;;
74483;SDS011;62942;52.462;10.846;2023-10-08T04:23:26;1.5;;;5.9;;
74483;SDS011;62942;52.462;10.846;2023-10-08T04:24:26;1.4;;;7.5;;
74483;SDS011;62942;52.462;10.846;2023-10-08T04:25:36;1.4;;;5;;
74483;SDS011;62942;52.462;10.846;2023-10-08T04:26:36;1.6;;;6.2;;
74483;SDS011;62942;52.462;10.846;2023-10-08T04:27:46;1.6;;;7.2;;
74483;SDS011;62942;52.462;10.846;2023-10-08T04:28:56;1.6;;;7.9;;
74483;SDS011;62942;52.462;10.846;2023-10-08T04:30:06;1.6;;;6.4;;
74483;SDS011;62942;52.462;10.846;2023-10-08T04:31:06;1.5;;;6.9;;
74483;SDS011;62942;52.462;10.846;2023-10-08T04:32:06;1.6;;;6.3;;
74483;SDS011;62942;52.462;10.846;2023-10-08T04:33:16;1.5;;;6.8;;
74483;SDS011;62942;52.462;10.846;2023-10-08T04:34:26;1.6;;;6.8;;
74483;SDS011;62942;52.462;10.846;2023-10-08T04:35:37;1.3;;;5.1;;
74483;SDS011;62942;52.462;10.846;2023-10-08T04:36:46;1.6;;;5.9;;
74483;SDS011;62942;52.462;10.846;2023-10-08T04:37:56;1.4;;;5.6;;
74483;SDS011;62942;52.462;10.846;2023-10-08T04:39:06;1.9;;;5.6;;
74483;SDS011;62942;52.462;10.846;2023-10-08T04:40:16;1.4;;;6.7;;
74483;SDS011;62942;52.462;10.846;2023-10-08T04:41:16;1.7;;;5.4;;
74483;SDS011;62942;52.462;10.846;2023-10-08T04:42:26;1.8;;;7.1;;
74483;SDS011;62942;52.462;10.846;2023-10-08T04:43:26;1.6;;;7.2;;
74483;SDS011;62942;52.462;10.846;2023-10-08T04:44:26;1.5;;;5.5;;
74483;SDS011;62942;52.462;10.846;2023-10-08T04:45:26;1.5;;;4.8;;
74483;SDS011;62942;52.462;10.846;2023-10-08T04:46:36;1.6;;;6.6;;
74483;SDS011;62942;52.462;10.846;2023-10-08T04:47:36;1.6;;;5.9;;
74483;SDS011;62942;52.462;10.846;2023-10-08T04:48:46;1.5;;;5.1;;
74483;SDS011;62942;52.462;10.846;2023-10-08T04:49:56;1.5;;;5.5;;
74483;SDS011;62942;52.462;10.846;2023-10-08T04:50:56;1.3;;;4.3;;
74483;SDS011;62942;52.462;10.846;2023-10-08T04:52:06;1.3;;;7.1;;
74483;SDS011;62942;52.462;10.846;2023-10-08T04:53:06;1.6;;;5.8;;
74483;SDS011;62942;52.462;10.846;2023-10-08T04:54:16;1.7;;;7.1;;
74483;SDS011;62942;52.462;10.846;2023-10-08T04:55:16;1.5;;;7.1;;
74483;SDS011;62942;52.462;10.846;2023-10-08T04:56:26;1.5;;;5;;
74483;SDS011;62942;52.462;10.846;2023-10-08T04:57:26;1.7;;;6.8;;
74483;SDS011;62942;52.462;10.846;2023-10-08T04:58:36;1.5;;;5;;
74483;SDS011;62942;52.462;10.846;2023-10-08T04:59:36;1.7;;;6.3;;
74483;SDS011;62942;52.462;10.846;2023-10-08T05:00:46;1.4;;;5.1;;
74483;SDS011;62942;52.462;10.846;2023-10-08T05:01:56;1.4;;;7;;
74483;SDS011;62942;52.462;10.846;2023-10-08T05:02:56;1.5;;;5.4;;
74483;SDS011;62942;52.462;10.846;2023-10-08T05:03:56;1.4;;;5.4;;
74483;SDS011;62942;52.462;10.846;2023-10-08T05:05:06;1.5;;;6.3;;
74483;SDS011;62942;52.462;10.846;2023-10-08T05:06:06;1.6;;;8.8;;
74483;SDS011;62942;52.462;10.846;2023-10-08T05:07:16;1.6;;;5.3;;
74483;SDS011;62942;52.462;10.846;2023-10-08T05:08:16;1.5;;;5.1;;
74483;SDS011;62942;52.462;10.846;2023-10-08T05:09:26;1.4;;;6.6;;
74483;SDS011;62942;52.462;10.846;2023-10-08T05:10:26;1.4;;;6.9;;
74483;SDS011;62942;52.462;10.846;2023-10-08T05:11:36;1.5;;;5.5;;
74483;SDS011;62942;52.462;10.846;2023-10-08T05:12:46;1.5;;;5.2;;
74483;SDS011;62942;52.462;10.846;2023-10-08T05:13:56;1.5;;;5.2;;
74483;SDS011;62942;52.462;10.846;2023-10-08T05:14:56;1.6;;;5.9;;
74483;SDS011;62942;52.462;10.846;2023-10-08T05:16:06;1.7;;;7.7;;
74483;SDS011;62942;52.462;10.846;2023-10-08T05:17:06;1.7;;;5.9;;
74483;SDS011;62942;52.462;10.846;2023-10-08T05:18:16;1.4;;;5.5;;
74483;SDS011;62942;52.462;10.846;2023-10-08T05:19:16;1.6;;;6.8;;
74483;SDS011;62942;52.462;10.846;2023-10-08T05:20:16;1.6;;;6.4;;
74483;SDS011;62942;52.462;10.846;2023-10-08T05:21:26;1.6;;;4.9;;
74483;SDS011;62942;52.462;10.846;2023-10-08T05:22:36;1.8;;;7.1;;
74483;SDS011;62942;52.462;10.846;2023-10-08T05:23:36;1.5;;;4.5;;
74483;SDS011;62942;52.462;10.846;2023-10-08T05:24:36;1.7;;;4.9;;
74483;SDS011;62942;52.462;10.846;2023-10-08T05:25:46;1.8;;;8.3;;
74483;SDS011;62942;52.462;10.846;2023-10-08T05:26:46;1.8;;;6.9;;
74483;SDS011;62942;52.462;10.846;2023-10-08T05:27:46;1.6;;;5.9;;
74483;SDS011;62942;52.462;10.846;2023-10-08T05:28:56;1.9;;;9.3;;
74483;SDS011;62942;52.462;10.846;2023-10-08T05:30:06;1.6;;;5.6;;
74483;SDS011;62942;52.462;10.846;2023-10-08T05:31:16;1.9;;;9.8;;
74483;SDS011;62942;52.462;10.846;2023-10-08T05:32:26;1.5;;;5.5;;
74483;SDS011;62942;52.462;10.846;2023-10-08T05:33:36;1.6;;;6.6;;
74483;SDS011;62942;52.462;10.846;2023-10-08T05:34:36;1.6;;;5.7;;
74483;SDS011;62942;52.462;10.846;2023-10-08T05:35:46;1.7;;;6.9;;
74483;SDS011;62942;52.462;10.846;2023-10-08T05:36:56;1.7;;;6.5;;
74483;SDS011;62942;52.462;10.846;2023-10-08T05:38:06;1.7;;;6.2;;
74483;SDS011;62942;52.462;10.846;2023-10-08T05:39:06;1.9;;;7.6;;
74483;SDS011;62942;52.462;10.846;2023-10-08T05:40:06;1.8;;;6.1;;
74483;SDS011;62942;52.462;10.846;2023-10-08T05:41:16;1.8;;;7.2;;
74483;SDS011;62942;52.462;10.846;2023-10-08T05:42:16;1.8;;;6.7;;
74483;SDS011;62942;52.462;10.846;2023-10-08T05:43:16;1.9;;;6.3;;
74483;SDS011;62942;52.462;10.846;2023-10-08T05:44:26;1.7;;;6.4;;
74483;SDS011;62942;52.462;10.846;2023-10-08T05:45:26;1.6;;;4.7;;
74483;SDS011;62942;52.462;10.846;2023-10-08T05:46:36;2;;;7.2;;
74483;SDS011;62942;52.462;10.846;2023-10-08T05:47:36;1.6;;;6.1;;
74483;SDS011;62942;52.462;10.846;2023-10-08T05:48:46;2;;;6.8;;
74483;SDS011;62942;52.462;10.846;2023-10-08T05:49:56;1.9;;;6.9;;
74483;SDS011;62942;52.462;10.846;2023-10-08T05:50:56;1.9;;;8.1;;
74483;SDS011;62942;52.462;10.846;2023-10-08T05:52:06;1.8;;;6.5;;
74483;SDS011;62942;52.462;10.846;2023-10-08T05:53:16;1.7;;;7.1;;
74483;SDS011;62942;52.462;10.846;2023-10-08T05:54:17;2;;;8.6;;
74483;SDS011;62942;52.462;10.846;2023-10-08T05:55:27;1.8;;;5.9;;
74483;SDS011;62942;52.462;10.846;2023-10-08T05:56:36;1.7;;;6;;
74483;SDS011;62942;52.462;10.846;2023-10-08T05:57:46;2;;;6;;
74483;SDS011;62942;52.462;10.846;2023-10-08T05:58:46;1.7;;;6.1;;
74483;SDS011;62942;52.462;10.846;2023-10-08T05:59:56;1.9;;;6.4;;
74483;SDS011;62942;52.462;10.846;2023-10-08T06:00:56;1.6;;;6.2;;
74483;SDS011;62942;52.462;10.846;2023-10-08T06:02:06;1.9;;;9.5;;
74483;SDS011;62942;52.462;10.846;2023-10-08T06:03:16;1.8;;;7.4;;
74483;SDS011;62942;52.462;10.846;2023-10-08T06:04:26;1.9;;;7.3;;
74483;SDS011;62942;52.462;10.846;2023-10-08T06:05:26;1.7;;;6.9;;
74483;SDS011;62942;52.462;10.846;2023-10-08T06:06:36;1.9;;;6.6;;
74483;SDS011;62942;52.462;10.846;2023-10-08T06:07:47;2;;;6.8;;
74483;SDS011;62942;52.462;10.846;2023-10-08T06:08:46;1.8;;;5;;
74483;SDS011;62942;52.462;10.846;2023-10-08T06:09:56;1.9;;;6.1;;
74483;SDS011;62942;52.462;10.846;2023-10-08T06:10:56;1.9;;;5.8;;
74483;SDS011;62942;52.462;10.846;2023-10-08T06:12:06;1.9;;;7.7;;
74483;SDS011;62942;52.462;10.846;2023-10-08T06:13:16;1.9;;;7;;
74483;SDS011;62942;52.462;10.846;2023-10-08T06:14:26;1.9;;;6;;
74483;SDS011;62942;52.462;10.846;2023-10-08T06:15:26;1.9;;;6.7;;
74483;SDS011;62942;52.462;10.846;2023-10-08T06:16:36;1.8;;;5.9;;
74483;SDS011;62942;52.462;10.846;2023-10-08T06:17:46;1.9;;;6.6;;
74483;SDS011;62942;52.462;10.846;2023-10-08T06:18:46;1.6;;;5.5;;
74483;SDS011;62942;52.462;10.846;2023-10-08T06:19:56;2;;;7.5;;
74483;SDS011;62942;52.462;10.846;2023-10-08T06:21:06;1.9;;;6.6;;
74483;SDS011;62942;52.462;10.846;2023-10-08T06:22:06;1.7;;;5.2;;
74483;SDS011;62942;52.462;10.846;2023-10-08T06:23:16;1.8;;;7.8;;
74483;SDS011;62942;52.462;10.846;2023-10-08T06:24:16;1.7;;;5.8;;
74483;SDS011;62942;52.462;10.846;2023-10-08T06:25:26;2.1;;;7.4;;
74483;SDS011;62942;52.462;10.846;2023-10-08T06:26:26;2;;;6.7;;
74483;SDS011;62942;52.462;10.846;2023-10-08T06:27:36;1.8;;;5.5;;
74483;SDS011;62942;52.462;10.846;2023-10-08T06:28:46;1.9;;;6.5;;
74483;SDS011;62942;52.462;10.846;2023-10-08T06:29:56;1.9;;;6.9;;
74483;SDS011;62942;52.462;10.846;2023-10-08T06:31:06;1.9;;;6.2;;
74483;SDS011;62942;52.462;10.846;2023-10-08T06:32:06;1.9;;;7.2;;
74483;SDS011;62942;52.462;10.846;2023-10-08T06:33:16;1.9;;;8.6;;
74483;SDS011;62942;52.462;10.846;2023-10-08T06:34:26;2.2;;;7;;
74483;SDS011;62942;52.462;10.846;2023-10-08T06:35:26;2;;;6.7;;
74483;SDS011;62942;52.462;10.846;2023-10-08T06:36:36;1.8;;;6.5;;
74483;SDS011;62942;52.462;10.846;2023-10-08T06:37:46;1.9;;;7.7;;
74483;SDS011;62942;52.462;10.846;2023-10-08T06:38:56;1.9;;;8;;
74483;SDS011;62942;52.462;10.846;2023-10-08T06:39:56;2;;;7.7;;
74483;SDS011;62942;52.462;10.846;2023-10-08T06:41:07;2;;;5.8;;
74483;SDS011;62942;52.462;10.846;2023-10-08T06:42:16;2;;;6.8;;
74483;SDS011;62942;52.462;10.846;2023-10-08T06:43:16;2.1;;;7.1;;
74483;SDS011;62942;52.462;10.846;2023-10-08T06:44:26;1.9;;;6.5;;
74483;SDS011;62942;52.462;10.846;2023-10-08T06:45:36;1.9;;;5;;